sensor_id;sensor_type;location;lat;lon;timestamp;pressure;altitude;pressure_sealevel;temperature;humidity
75425;BME280;64007;50.632;13.700;2024-03-02T00:00:05;96962.53;;;7.48;100.00
75425;BME280;64007;50.632;13.700;2024-03-02T00:02:57;96967.00;;;7.48;100.00
75425;BME280;64007;50.632;13.700;2024-03-02T00:05:22;96952.22;;;7.45;100.00
75425;BME280;64007;50.632;13.700;2024-03-02T00:07:55;96961.56;;;7.49;100.00
75425;BME280;64007;50.632;13.700;2024-03-02T00:10:24;96956.72;;;7.54;100.00
75425;BME280;64007;50.632;13.700;2024-03-02T00:12:55;96952.00;;;7.58;100.00
75425;BME280;64007;50.632;13.700;2024-03-02T00:18:31;96959.63;;;7.72;100.00
75425;BME280;64007;50.632;13.700;2024-03-02T00:20:57;96967.72;;;7.80;100.00
75425;BME280;64007;50.632;13.700;2024-03-02T00:23:25;96966.56;;;7.64;100.00
75425;BME280;64007;50.632;13.700;2024-03-02T00:25:53;96962.84;;;7.55;100.00
75425;BME280;64007;50.632;13.700;2024-03-02T00:28:24;96966.47;;;7.54;100.00
75425;BME280;64007;50.632;13.700;2024-03-02T00:33:16;96970.78;;;7.55;100.00
75425;BME280;64007;50.632;13.700;2024-03-02T00:35:44;96970.66;;;7.57;100.00
75425;BME280;64007;50.632;13.700;2024-03-02T00:38:10;96971.19;;;7.50;100.00
75425;BME280;64007;50.632;13.700;2024-03-02T00:40:36;96966.34;;;7.55;100.00
75425;BME280;64007;50.632;13.700;2024-03-02T00:43:02;96963.97;;;7.52;100.00
75425;BME280;64007;50.632;13.700;2024-03-02T00:45:28;96968.28;;;7.53;100.00
75425;BME280;64007;50.632;13.700;2024-03-02T00:47:55;96970.94;;;7.53;100.00
75425;BME280;64007;50.632;13.700;2024-03-02T00:50:21;96956.28;;;7.49;100.00
75425;BME280;64007;50.632;13.700;2024-03-02T00:52:47;96953.38;;;7.52;100.00
75425;BME280;64007;50.632;13.700;2024-03-02T00:55:15;96951.72;;;7.51;100.00
75425;BME280;64007;50.632;13.700;2024-03-02T00:57:41;96952.41;;;7.53;100.00
75425;BME280;64007;50.632;13.700;2024-03-02T01:00:07;96944.75;;;7.50;100.00
75425;BME280;64007;50.632;13.700;2024-03-02T01:02:35;96950.59;;;7.54;100.00
75425;BME280;64007;50.632;13.700;2024-03-02T01:05:01;96950.47;;;7.55;100.00
75425;BME280;64007;50.632;13.700;2024-03-02T01:07:27;96948.78;;;7.54;100.00
75425;BME280;64007;50.632;13.700;2024-03-02T01:09:53;96954.09;;;7.54;100.00
75425;BME280;64007;50.632;13.700;2024-03-02T01:12:18;96960.78;;;7.59;100.00
75425;BME280;64007;50.632;13.700;2024-03-02T01:14:44;96956.72;;;7.54;100.00
75425;BME280;64007;50.632;13.700;2024-03-02T01:17:10;96950.59;;;7.54;100.00
75425;BME280;64007;50.632;13.700;2024-03-02T01:19:35;96958.41;;;7.55;100.00
75425;BME280;64007;50.632;13.700;2024-03-02T01:22:01;96956.72;;;7.54;100.00
75425;BME280;64007;50.632;13.700;2024-03-02T01:24:27;96956.72;;;7.54;100.00
75425;BME280;64007;50.632;13.700;2024-03-02T01:26:53;96952.84;;;7.59;100.00
75425;BME280;64007;50.632;13.700;2024-03-02T01:29:18;96951.88;;;7.60;100.00
75425;BME280;64007;50.632;13.700;2024-03-02T01:31:45;96954.78;;;7.57;100.00
75425;BME280;64007;50.632;13.700;2024-03-02T01:34:10;96954.34;;;7.72;100.00
75425;BME280;64007;50.632;13.700;2024-03-02T01:36:38;96961.00;;;7.67;100.00
75425;BME280;64007;50.632;13.700;2024-03-02T01:39:03;96951.19;;;7.58;100.00
75425;BME280;64007;50.632;13.700;2024-03-02T01:41:29;96947.81;;;7.55;100.00
75425;BME280;64007;50.632;13.700;2024-03-02T01:43:55;96947.13;;;7.53;100.00
75425;BME280;64007;50.632;13.700;2024-03-02T01:46:21;96947.81;;;7.55;100.00
75425;BME280;64007;50.632;13.700;2024-03-02T01:48:46;96947.13;;;7.53;100.00
75425;BME280;64007;50.632;13.700;2024-03-02T01:51:13;96949.75;;;7.53;100.00
75425;BME280;64007;50.632;13.700;2024-03-02T01:53:38;96942.94;;;7.51;100.00
75425;BME280;64007;50.632;13.700;2024-03-02T01:56:04;96952.53;;;7.52;100.00
75425;BME280;64007;50.632;13.700;2024-03-02T01:58:30;96948.78;;;7.54;100.00
75425;BME280;64007;50.632;13.700;2024-03-02T02:00:56;96953.81;;;7.58;100.00
75425;BME280;64007;50.632;13.700;2024-03-02T02:03:22;96954.53;;;7.60;100.00
75425;BME280;64007;50.632;13.700;2024-03-02T02:05:48;96949.22;;;7.60;100.00
75425;BME280;64007;50.632;13.700;2024-03-02T02:08:13;96952.63;;;7.62;100.00
75425;BME280;64007;50.632;13.700;2024-03-02T02:10:39;96950.94;;;7.61;100.00
75425;BME280;64007;50.632;13.700;2024-03-02T02:13:05;96950.22;;;7.59;100.00
75425;BME280;64007;50.632;13.700;2024-03-02T02:15:31;96947.69;;;7.57;100.00
75425;BME280;64007;50.632;13.700;2024-03-02T02:17:58;96950.94;;;7.61;100.00
75425;BME280;64007;50.632;13.700;2024-03-02T02:20:24;96942.03;;;7.62;100.00
75425;BME280;64007;50.632;13.700;2024-03-02T02:23:00;96947.31;;;7.62;100.00
75425;BME280;64007;50.632;13.700;2024-03-02T02:25:28;96949.00;;;7.63;100.00
75425;BME280;64007;50.632;13.700;2024-03-02T02:27:54;96943.44;;;7.66;100.00
75425;BME280;64007;50.632;13.700;2024-03-02T02:30:24;96940.09;;;7.64;100.00
75425;BME280;64007;50.632;13.700;2024-03-02T02:32:49;96937.88;;;7.69;100.00
75425;BME280;64007;50.632;13.700;2024-03-02T02:35:15;96937.72;;;7.61;100.00
75425;BME280;64007;50.632;13.700;2024-03-02T02:37:41;96929.78;;;7.61;100.00
75425;BME280;64007;50.632;13.700;2024-03-02T02:40:08;96924.84;;;7.56;100.00
75425;BME280;64007;50.632;13.700;2024-03-02T02:42:34;96931.69;;;7.59;100.00
75425;BME280;64007;50.632;13.700;2024-03-02T02:45:00;96930.78;;;7.69;100.00
75425;BME280;64007;50.632;13.700;2024-03-02T02:47:25;96928.97;;;7.70;100.00
75425;BME280;64007;50.632;13.700;2024-03-02T02:49:51;96927.19;;;7.80;100.00
75425;BME280;64007;50.632;13.700;2024-03-02T02:52:17;96922.19;;;7.77;100.00
75425;BME280;64007;50.632;13.700;2024-03-02T02:54:44;96932.31;;;7.72;100.00
75425;BME280;64007;50.632;13.700;2024-03-02T02:57:09;96928.97;;;7.70;100.00
75425;BME280;64007;50.632;13.700;2024-03-02T02:59:35;96930.00;;;7.58;100.00
75425;BME280;64007;50.632;13.700;2024-03-02T03:02:01;96933.84;;;7.65;100.00
75425;BME280;64007;50.632;13.700;2024-03-02T03:04:27;96923.25;;;7.65;100.00
75425;BME280;64007;50.632;13.700;2024-03-02T03:06:52;96920.88;;;7.62;100.00
75425;BME280;64007;50.632;13.700;2024-03-02T03:09:18;96919.44;;;7.58;100.00
75425;BME280;64007;50.632;13.700;2024-03-02T03:11:44;96919.97;;;7.51;100.00
75425;BME280;64007;50.632;13.700;2024-03-02T03:14:10;96917.59;;;7.48;100.00
75425;BME280;64007;50.632;13.700;2024-03-02T03:16:35;96922.47;;;7.53;100.00
75425;BME280;64007;50.632;13.700;2024-03-02T03:19:01;96919.97;;;7.51;100.00
75425;BME280;64007;50.632;13.700;2024-03-02T03:21:26;96917.16;;;7.43;100.00
75425;BME280;64007;50.632;13.700;2024-03-02T03:23:52;96912.97;;;7.41;100.00
75425;BME280;64007;50.632;13.700;2024-03-02T03:26:18;96915.78;;;7.49;100.00
75425;BME280;64007;50.632;13.700;2024-03-02T03:28:44;96926.50;;;7.47;100.00
75425;BME280;64007;50.632;13.700;2024-03-02T03:31:09;96912.16;;;7.50;100.00
75425;BME280;64007;50.632;13.700;2024-03-02T03:33:36;96929.97;;;7.48;100.00
75425;BME280;64007;50.632;13.700;2024-03-02T03:36:01;96927.84;;;7.63;100.00
75425;BME280;64007;50.632;13.700;2024-03-02T03:38:29;96925.81;;;7.55;100.00
75425;BME280;64007;50.632;13.700;2024-03-02T03:40:55;96931.94;;;7.55;100.00
75425;BME280;64007;50.632;13.700;2024-03-02T03:43:21;96935.84;;;7.51;100.00
75425;BME280;64007;50.632;13.700;2024-03-02T03:45:46;96938.91;;;7.57;100.00
75425;BME280;64007;50.632;13.700;2024-03-02T03:48:12;96948.09;;;7.52;100.00
75425;BME280;64007;50.632;13.700;2024-03-02T03:50:38;96957.06;;;7.40;100.00
75425;BME280;64007;50.632;13.700;2024-03-02T03:53:04;96950.63;;;7.33;100.00
75425;BME280;64007;50.632;13.700;2024-03-02T03:55:29;96951.28;;;7.26;100.00
75425;BME280;64007;50.632;13.700;2024-03-02T03:57:55;96952.25;;;7.25;100.00
75425;BME280;64007;50.632;13.700;2024-03-02T04:00:20;96951.78;;;7.19;100.00
75425;BME280;64007;50.632;13.700;2024-03-02T04:02:46;96938.56;;;7.19;100.00
75425;BME280;64007;50.632;13.700;2024-03-02T04:05:12;96934.63;;;7.14;100.00
75425;BME280;64007;50.632;13.700;2024-03-02T04:07:38;96935.34;;;7.16;100.00
75425;BME280;64007;50.632;13.700;2024-03-02T04:10:09;96944.69;;;7.20;100.00
75425;BME280;64007;50.632;13.700;2024-03-02T04:12:38;96936.66;;;7.21;100.00
75425;BME280;64007;50.632;13.700;2024-03-02T04:15:05;96941.88;;;7.33;100.00
75425;BME280;64007;50.632;13.700;2024-03-02T04:17:33;96944.66;;;7.31;100.00
75425;BME280;64007;50.632;13.700;2024-03-02T04:19:59;96948.25;;;7.30;100.00
75425;BME280;64007;50.632;13.700;2024-03-02T04:22:26;96951.66;;;7.42;100.00
75425;BME280;64007;50.632;13.700;2024-03-02T04:24:52;96950.38;;;7.36;100.00
75425;BME280;64007;50.632;13.700;2024-03-02T04:27:18;96963.06;;;7.42;100.00
75425;BME280;64007;50.632;13.700;2024-03-02T04:29:43;96960.25;;;7.34;100.00
75425;BME280;64007;50.632;13.700;2024-03-02T04:32:09;96958.84;;;7.30;100.00
75425;BME280;64007;50.632;13.700;2024-03-02T04:34:35;96966.06;;;7.28;100.00
75425;BME280;64007;50.632;13.700;2024-03-02T04:37:00;96962.72;;;7.26;100.00
75425;BME280;64007;50.632;13.700;2024-03-02T04:39:26;96965.59;;;7.23;100.00
75425;BME280;64007;50.632;13.700;2024-03-02T04:41:52;96963.09;;;7.21;100.00
75425;BME280;64007;50.632;13.700;2024-03-02T04:44:18;96967.06;;;7.16;100.00
75425;BME280;64007;50.632;13.700;2024-03-02T04:46:43;96973.56;;;7.12;100.00
75425;BME280;64007;50.632;13.700;2024-03-02T04:49:09;96978.34;;;7.18;100.00
75425;BME280;64007;50.632;13.700;2024-03-02T04:51:35;96973.66;;;7.21;100.00
75425;BME280;64007;50.632;13.700;2024-03-02T04:54:01;96977.63;;;7.16;100.00
75425;BME280;64007;50.632;13.700;2024-03-02T04:56:26;96984.47;;;7.18;100.00
75425;BME280;64007;50.632;13.700;2024-03-02T04:59:06;96990.63;;;7.40;100.00
75425;BME280;64007;50.632;13.700;2024-03-02T05:01:31;96981.66;;;7.31;100.00
75425;BME280;64007;50.632;13.700;2024-03-02T05:03:58;96996.38;;;7.24;100.00
75425;BME280;64007;50.632;13.700;2024-03-02T05:06:24;96992.25;;;7.31;100.00
75425;BME280;64007;50.632;13.700;2024-03-02T05:08:49;97003.06;;;7.28;100.00
75425;BME280;64007;50.632;13.700;2024-03-02T05:11:15;97005.59;;;7.30;100.00
75425;BME280;64007;50.632;13.700;2024-03-02T05:13:59;97013.13;;;7.34;100.00
75425;BME280;64007;50.632;13.700;2024-03-02T05:16:25;97007.31;;;7.19;100.00
75425;BME280;64007;50.632;13.700;2024-03-02T05:18:51;97013.69;;;7.17;100.00
75425;BME280;64007;50.632;13.700;2024-03-02T05:21:16;97011.28;;;7.14;100.00
75425;BME280;64007;50.632;13.700;2024-03-02T05:23:42;97014.91;;;7.13;100.00
75425;BME280;64007;50.632;13.700;2024-03-02T05:26:07;97016.59;;;7.14;100.00
75425;BME280;64007;50.632;13.700;2024-03-02T05:28:33;97021.88;;;7.14;100.00
75425;BME280;64007;50.632;13.700;2024-03-02T05:30:59;97018.25;;;7.15;100.00
75425;BME280;64007;50.632;13.700;2024-03-02T05:33:25;97024.50;;;7.14;100.00
75425;BME280;64007;50.632;13.700;2024-03-02T05:35:50;97030.75;;;7.13;100.00
75425;BME280;64007;50.632;13.700;2024-03-02T05:38:16;97029.09;;;7.12;100.00
75425;BME280;64007;50.632;13.700;2024-03-02T05:40:41;97032.44;;;7.14;100.00
75425;BME280;64007;50.632;13.700;2024-03-02T05:43:07;97031.00;;;7.21;100.00
75425;BME280;64007;50.632;13.700;2024-03-02T05:45:33;97033.88;;;7.18;100.00
75425;BME280;64007;50.632;13.700;2024-03-02T05:47:59;97042.50;;;7.20;100.00
75425;BME280;64007;50.632;13.700;2024-03-02T05:50:24;97042.75;;;7.17;100.00
75425;BME280;64007;50.632;13.700;2024-03-02T05:52:50;97042.75;;;7.17;100.00
75425;BME280;64007;50.632;13.700;2024-03-02T05:55:16;97042.75;;;7.17;100.00
75425;BME280;64007;50.632;13.700;2024-03-02T05:57:41;97049.72;;;7.18;100.00
75425;BME280;64007;50.632;13.700;2024-03-02T06:00:10;97058.88;;;7.14;100.00
75425;BME280;64007;50.632;13.700;2024-03-02T06:02:39;97060.44;;;7.16;100.00
75425;BME280;64007;50.632;13.700;2024-03-02T06:05:06;97055.75;;;7.41;100.00
75425;BME280;64007;50.632;13.700;2024-03-02T06:07:32;97053.75;;;7.33;100.00
75425;BME280;64007;50.632;13.700;2024-03-02T06:09:58;97059.81;;;7.24;100.00
75425;BME280;64007;50.632;13.700;2024-03-02T06:12:24;97046.13;;;7.19;100.00
75425;BME280;64007;50.632;13.700;2024-03-02T06:14:50;97049.72;;;7.18;100.00
75425;BME280;64007;50.632;13.700;2024-03-02T06:17:15;97049.72;;;7.18;100.00
75425;BME280;64007;50.632;13.700;2024-03-02T06:19:41;97055.00;;;7.18;100.00
75425;BME280;64007;50.632;13.700;2024-03-02T06:22:07;97048.41;;;7.23;100.00
75425;BME280;64007;50.632;13.700;2024-03-02T06:24:36;97054.78;;;7.21;100.00
75425;BME280;64007;50.632;13.700;2024-03-02T06:27:03;97065.47;;;7.19;100.00
75425;BME280;64007;50.632;13.700;2024-03-02T06:29:32;97061.75;;;7.22;100.00
75425;BME280;64007;50.632;13.700;2024-03-02T06:31:58;97057.88;;;7.26;100.00
75425;BME280;64007;50.632;13.700;2024-03-02T06:34:23;97062.94;;;7.18;100.00
75425;BME280;64007;50.632;13.700;2024-03-02T06:36:49;97072.81;;;7.16;100.00
75425;BME280;64007;50.632;13.700;2024-03-02T06:39:15;97073.53;;;7.18;100.00
75425;BME280;64007;50.632;13.700;2024-03-02T06:41:41;97082.28;;;7.18;100.00
75425;BME280;64007;50.632;13.700;2024-03-02T06:44:08;97092.66;;;7.21;100.00
75425;BME280;64007;50.632;13.700;2024-03-02T06:46:34;97089.88;;;7.23;100.00
75425;BME280;64007;50.632;13.700;2024-03-02T06:48:59;97084.59;;;7.23;100.00
75425;BME280;64007;50.632;13.700;2024-03-02T06:51:25;97088.66;;;7.27;100.00
75425;BME280;64007;50.632;13.700;2024-03-02T06:53:50;97088.28;;;7.32;100.00
75425;BME280;64007;50.632;13.700;2024-03-02T06:56:16;97085.75;;;7.30;100.00
75425;BME280;64007;50.632;13.700;2024-03-02T06:58:42;97090.53;;;7.36;100.00
75425;BME280;64007;50.632;13.700;2024-03-02T07:01:08;97091.03;;;7.30;100.00
75425;BME280;64007;50.632;13.700;2024-03-02T07:03:35;97098.84;;;7.32;100.00
75425;BME280;64007;50.632;13.700;2024-03-02T07:06:01;97090.06;;;7.31;100.00
75425;BME280;64007;50.632;13.700;2024-03-02T07:08:26;97099.94;;;7.29;100.00
75425;BME280;64007;50.632;13.700;2024-03-02T07:10:52;97092.25;;;7.26;100.00
75425;BME280;64007;50.632;13.700;2024-03-02T07:13:18;97083.94;;;7.31;100.00
75425;BME280;64007;50.632;13.700;2024-03-02T07:15:44;97096.59;;;7.27;100.00
75425;BME280;64007;50.632;13.700;2024-03-02T07:18:16;97104.97;;;7.32;100.00
75425;BME280;64007;50.632;13.700;2024-03-02T07:20:42;97103.28;;;7.31;100.00
75425;BME280;64007;50.632;13.700;2024-03-02T07:23:07;97107.03;;;7.29;100.00
75425;BME280;64007;50.632;13.700;2024-03-02T07:25:34;97112.78;;;7.34;100.00
75425;BME280;64007;50.632;13.700;2024-03-02T07:27:59;97110.84;;;7.36;100.00
75425;BME280;64007;50.632;13.700;2024-03-02T07:30:25;97105.69;;;7.34;100.00
75425;BME280;64007;50.632;13.700;2024-03-02T07:32:51;97111.94;;;7.33;100.00
75425;BME280;64007;50.632;13.700;2024-03-02T07:35:16;97111.94;;;7.33;100.00
75425;BME280;64007;50.632;13.700;2024-03-02T07:37:43;97120.34;;;7.38;100.00
75425;BME280;64007;50.632;13.700;2024-03-02T07:40:10;97122.72;;;7.41;100.00
75425;BME280;64007;50.632;13.700;2024-03-02T07:42:38;97120.53;;;7.46;100.00
75425;BME280;64007;50.632;13.700;2024-03-02T07:45:05;97120.78;;;7.43;100.00
75425;BME280;64007;50.632;13.700;2024-03-02T07:47:30;97126.06;;;7.43;100.00
75425;BME280;64007;50.632;13.700;2024-03-02T07:49:56;97129.88;;;7.50;100.00
75425;BME280;64007;50.632;13.700;2024-03-02T07:52:21;97141.31;;;7.51;100.00
75425;BME280;64007;50.632;13.700;2024-03-02T07:54:48;97140.47;;;7.50;100.00
75425;BME280;64007;50.632;13.700;2024-03-02T07:57:13;97136.34;;;7.58;100.00
75425;BME280;64007;50.632;13.700;2024-03-02T07:59:39;97131.78;;;7.60;100.00
75425;BME280;64007;50.632;13.700;2024-03-02T08:02:05;97143.31;;;7.59;100.00
75425;BME280;64007;50.632;13.700;2024-03-02T08:04:31;97137.69;;;7.63;100.00
75425;BME280;64007;50.632;13.700;2024-03-02T08:06:56;97145.69;;;7.73;100.00
75425;BME280;64007;50.632;13.700;2024-03-02T08:09:22;97142.44;;;7.90;100.00
75425;BME280;64007;50.632;13.700;2024-03-02T08:11:48;97144.66;;;7.85;100.00
75425;BME280;64007;50.632;13.700;2024-03-02T08:14:14;97147.81;;;7.79;100.00
75425;BME280;64007;50.632;13.700;2024-03-02T08:16:40;97152.78;;;7.72;100.00
75425;BME280;64007;50.632;13.700;2024-03-02T08:19:07;97164.25;;;7.62;100.00
75425;BME280;64007;50.632;13.700;2024-03-02T08:21:34;97168.59;;;7.63;100.00
75425;BME280;64007;50.632;13.700;2024-03-02T08:24:02;97167.63;;;7.64;100.00
75425;BME280;64007;50.632;13.700;2024-03-02T08:26:27;97167.38;;;7.67;100.00
75425;BME280;64007;50.632;13.700;2024-03-02T08:28:59;97169.94;;;7.78;100.00
75425;BME280;64007;50.632;13.700;2024-03-02T08:31:27;97172.41;;;7.70;100.00
75425;BME280;64007;50.632;13.700;2024-03-02T08:33:53;97182.59;;;7.74;100.00
75425;BME280;64007;50.632;13.700;2024-03-02T08:36:19;97184.59;;;7.61;100.00
75425;BME280;64007;50.632;13.700;2024-03-02T08:38:45;97187.84;;;7.53;100.00
75425;BME280;64007;50.632;13.700;2024-03-02T08:41:11;97191.03;;;7.68;100.00
75425;BME280;64007;50.632;13.700;2024-03-02T08:43:41;97196.41;;;7.78;100.00
75425;BME280;64007;50.632;13.700;2024-03-02T08:46:08;97187.09;;;7.63;100.00
75425;BME280;64007;50.632;13.700;2024-03-02T08:48:34;97172.22;;;7.50;100.00
75425;BME280;64007;50.632;13.700;2024-03-02T08:51:00;97168.34;;;7.54;100.00
75425;BME280;64007;50.632;13.700;2024-03-02T08:53:25;97177.50;;;7.50;100.00
75425;BME280;64007;50.632;13.700;2024-03-02T08:55:52;97175.81;;;7.49;100.00
75425;BME280;64007;50.632;13.700;2024-03-02T08:58:17;97170.53;;;7.49;100.00
75425;BME280;64007;50.632;13.700;2024-03-02T09:00:43;97166.94;;;7.50;100.00
75425;BME280;64007;50.632;13.700;2024-03-02T09:03:09;97174.47;;;7.55;100.00
75425;BME280;64007;50.632;13.700;2024-03-02T09:05:35;97172.69;;;7.55;100.00
75425;BME280;64007;50.632;13.700;2024-03-02T09:08:01;97166.16;;;7.60;100.00
75425;BME280;64007;50.632;13.700;2024-03-02T09:10:29;97173.16;;;7.61;100.00
75425;BME280;64007;50.632;13.700;2024-03-02T09:12:54;97172.66;;;7.67;100.00
75425;BME280;64007;50.632;13.700;2024-03-02T09:15:20;97182.84;;;7.71;100.00
75425;BME280;64007;50.632;13.700;2024-03-02T09:17:46;97196.09;;;7.71;100.00
75425;BME280;64007;50.632;13.700;2024-03-02T09:20:12;97189.00;;;7.72;100.00
75425;BME280;64007;50.632;13.700;2024-03-02T09:22:39;97184.41;;;7.74;100.00
75425;BME280;64007;50.632;13.700;2024-03-02T09:25:05;97185.84;;;7.78;100.00
75425;BME280;64007;50.632;13.700;2024-03-02T09:27:32;97185.84;;;7.78;100.00
75425;BME280;64007;50.632;13.700;2024-03-02T09:29:58;97189.91;;;7.82;100.00
75425;BME280;64007;50.632;13.700;2024-03-02T09:32:23;97194.22;;;7.83;100.00
75425;BME280;64007;50.632;13.700;2024-03-02T09:34:49;97188.81;;;7.84;100.00
75425;BME280;64007;50.632;13.700;2024-03-02T09:37:15;97192.72;;;8.01;100.00
75425;BME280;64007;50.632;13.700;2024-03-02T09:39:43;97196.09;;;7.92;100.00
75425;BME280;64007;50.632;13.700;2024-03-02T09:42:09;97188.88;;;7.94;100.00
75425;BME280;64007;50.632;13.700;2024-03-02T09:44:35;97197.06;;;7.91;100.00
75425;BME280;64007;50.632;13.700;2024-03-02T09:47:00;97197.66;;;7.95;100.00
75425;BME280;64007;50.632;13.700;2024-03-02T09:49:26;97194.88;;;7.96;100.00
75425;BME280;64007;50.632;13.700;2024-03-02T09:51:52;97182.13;;;8.01;100.00
75425;BME280;64007;50.632;13.700;2024-03-02T09:54:18;97189.09;;;8.02;100.00
75425;BME280;64007;50.632;13.700;2024-03-02T09:56:44;97185.47;;;8.03;100.00
75425;BME280;64007;50.632;13.700;2024-03-02T09:59:10;97183.81;;;8.02;100.00
75425;BME280;64007;50.632;13.700;2024-03-02T10:01:36;97181.34;;;8.10;100.00
75425;BME280;64007;50.632;13.700;2024-03-02T10:04:02;97180.56;;;8.20;100.00
75425;BME280;64007;50.632;13.700;2024-03-02T10:06:28;97173.31;;;8.22;100.00
75425;BME280;64007;50.632;13.700;2024-03-02T10:08:55;97185.84;;;8.20;100.00
75425;BME280;64007;50.632;13.700;2024-03-02T10:14:10;97177.13;;;8.29;100.00
75425;BME280;64007;50.632;13.700;2024-03-02T10:16:40;97180.97;;;8.36;100.00
75425;BME280;64007;50.632;13.700;2024-03-02T10:21:54;97178.16;;;8.58;100.00
75425;BME280;64007;50.632;13.700;2024-03-02T10:24:22;97177.50;;;8.66;100.00
75425;BME280;64007;50.632;13.700;2024-03-02T10:26:48;97181.16;;;8.74;100.00
75425;BME280;64007;50.632;13.700;2024-03-02T10:29:15;97168.03;;;8.73;100.00
75425;BME280;64007;50.632;13.700;2024-03-02T10:31:45;97162.81;;;8.83;100.00
75425;BME280;64007;50.632;13.700;2024-03-02T10:34:14;97155.72;;;9.02;100.00
75425;BME280;64007;50.632;13.700;2024-03-02T10:36:42;97146.88;;;9.32;100.00
75425;BME280;64007;50.632;13.700;2024-03-02T10:39:08;97143.53;;;9.59;100.00
75425;BME280;64007;50.632;13.700;2024-03-02T10:41:36;97142.41;;;9.91;100.00
75425;BME280;64007;50.632;13.700;2024-03-02T10:44:04;97141.13;;;10.24;100.00
75425;BME280;64007;50.632;13.700;2024-03-02T10:46:30;97146.97;;;10.47;100.00
75425;BME280;64007;50.632;13.700;2024-03-02T10:48:57;97146.84;;;10.76;100.00
75425;BME280;64007;50.632;13.700;2024-03-02T10:51:27;97149.66;;;10.74;100.00
75425;BME280;64007;50.632;13.700;2024-03-02T10:53:54;97153.84;;;10.77;100.00
75425;BME280;64007;50.632;13.700;2024-03-02T10:56:30;97158.41;;;10.57;100.00
75425;BME280;64007;50.632;13.700;2024-03-02T10:59:06;97153.03;;;10.66;100.00
75425;BME280;64007;50.632;13.700;2024-03-02T11:01:38;97155.84;;;10.65;100.00
75425;BME280;64007;50.632;13.700;2024-03-02T11:04:08;97158.00;;;10.52;100.00
75425;BME280;64007;50.632;13.700;2024-03-02T11:06:34;97150.88;;;10.52;100.00
75425;BME280;64007;50.632;13.700;2024-03-02T11:09:06;97156.06;;;10.44;100.00
75425;BME280;64007;50.632;13.700;2024-03-02T11:11:36;97152.97;;;10.39;100.00
75425;BME280;64007;50.632;13.700;2024-03-02T11:14:04;97148.38;;;10.31;100.00
75425;BME280;64007;50.632;13.700;2024-03-02T11:16:35;97152.84;;;10.50;100.00
75425;BME280;64007;50.632;13.700;2024-03-02T11:19:12;97156.41;;;10.68;100.00
75425;BME280;64007;50.632;13.700;2024-03-02T11:21:38;97156.69;;;10.65;100.00
75425;BME280;64007;50.632;13.700;2024-03-02T11:26:47;97161.41;;;10.72;100.00
75425;BME280;64007;50.632;13.700;2024-03-02T11:34:41;97150.00;;;10.61;100.00
75425;BME280;64007;50.632;13.700;2024-03-02T11:37:10;97147.03;;;10.64;100.00
75425;BME280;64007;50.632;13.700;2024-03-02T11:39:37;97149.09;;;10.71;100.00
75425;BME280;64007;50.632;13.700;2024-03-02T11:42:06;97142.66;;;10.83;100.00
75425;BME280;64007;50.632;13.700;2024-03-02T11:44:33;97138.25;;;10.91;100.00
75425;BME280;64007;50.632;13.700;2024-03-02T11:52:08;97145.03;;;11.04;100.00
75425;BME280;64007;50.632;13.700;2024-03-02T11:54:39;97137.13;;;11.21;100.00
75425;BME280;64007;50.632;13.700;2024-03-02T11:57:08;97138.66;;;11.42;100.00
75425;BME280;64007;50.632;13.700;2024-03-02T11:59:34;97145.13;;;11.57;100.00
75425;BME280;64007;50.632;13.700;2024-03-02T12:02:00;97142.94;;;11.70;100.00
75425;BME280;64007;50.632;13.700;2024-03-02T12:04:26;97146.06;;;11.66;100.00
75425;BME280;64007;50.632;13.700;2024-03-02T12:06:58;97142.78;;;11.72;100.00
75425;BME280;64007;50.632;13.700;2024-03-02T12:09:28;97136.72;;;11.79;100.00
75425;BME280;64007;50.632;13.700;2024-03-02T12:12:05;97123.41;;;11.79;100.00
75425;BME280;64007;50.632;13.700;2024-03-02T12:14:33;97124.69;;;11.75;100.00
75425;BME280;64007;50.632;13.700;2024-03-02T12:16:59;97129.63;;;11.70;100.00
75425;BME280;64007;50.632;13.700;2024-03-02T12:19:26;97125.06;;;11.63;100.00
75425;BME280;64007;50.632;13.700;2024-03-02T12:21:53;97129.00;;;11.58;100.00
75425;BME280;64007;50.632;13.700;2024-03-02T12:24:21;97121.09;;;11.67;100.00
75425;BME280;64007;50.632;13.700;2024-03-02T12:26:47;97126.91;;;11.62;100.00
75425;BME280;64007;50.632;13.700;2024-03-02T12:29:13;97126.09;;;11.52;100.00
75425;BME280;64007;50.632;13.700;2024-03-02T12:31:41;97126.94;;;11.35;100.00
75425;BME280;64007;50.632;13.700;2024-03-02T12:34:08;97127.56;;;11.28;100.00
75425;BME280;64007;50.632;13.700;2024-03-02T12:36:38;97126.19;;;11.24;100.00
75425;BME280;64007;50.632;13.700;2024-03-02T12:39:04;97119.22;;;11.14;100.00
75425;BME280;64007;50.632;13.700;2024-03-02T12:41:30;97120.34;;;11.11;100.00
75425;BME280;64007;50.632;13.700;2024-03-02T12:43:56;97128.63;;;11.08;100.00
75425;BME280;64007;50.632;13.700;2024-03-02T12:46:22;97123.53;;;10.97;100.00
75425;BME280;64007;50.632;13.700;2024-03-02T12:48:47;97117.81;;;10.92;100.00
75425;BME280;64007;50.632;13.700;2024-03-02T12:51:13;97113.78;;;10.88;100.00
75425;BME280;64007;50.632;13.700;2024-03-02T12:53:40;97120.25;;;10.85;100.00
75425;BME280;64007;50.632;13.700;2024-03-02T12:56:07;97112.44;;;10.74;100.00
75425;BME280;64007;50.632;13.700;2024-03-02T12:58:41;97113.94;;;10.77;100.00
75425;BME280;64007;50.632;13.700;2024-03-02T13:01:08;97112.81;;;10.79;100.00
75425;BME280;64007;50.632;13.700;2024-03-02T13:03:38;97107.66;;;10.78;100.00
75425;BME280;64007;50.632;13.700;2024-03-02T13:06:05;97109.63;;;10.76;100.00
75425;BME280;64007;50.632;13.700;2024-03-02T13:08:32;97110.31;;;10.78;100.00